Latest Weather Observations for Port Pirie Airport AWS***

IDS60801

Issued at 8:35 pm CDT Thursday 23 October 2014 (issued every 30 minutes, with the page automatically refreshed every 10 minutes)

About weather observations | Map of weather stations | Latest weather observations for SA | Other Formats
Station Details ID: 250006 Name: PORT PIRIE AERODROME AWS Lat: -33.23 Lon: 138.00 Height: 10.0 m
Data from the previous 72 hours. | See also: Recent months for locations in South Australia
Date/Time
CDT
Temp
°C
App
Temp
°C
Dew
Point
Rel
Hum
%
Delta-T
°C
Wind Press
QNH
hPa
Press
MSL
hPa
Rain
since 9 am
mm
Dir
 
Spd
km/h
Gust
km/h
Spd
kts
Gust
kts
23/08:30pm 18.8 17.6 13.9 73 2.8 SW 13 19 7 10 - - 0.0
23/08:00pm 18.9 17.1 13.3 70 3.2 SW 15 20 8 11 - - 0.0
23/07:30pm 19.5 17.4 13.7 69 3.3 SW 17 24 9 13 - - 0.0
23/07:00pm 22.1 21.0 13.2 57 5.1 SW 11 17 6 9 - - 0.0
23/06:30pm 23.5 22.7 12.8 51 6.1 S 9 15 5 8 - - 0.0
23/06:00pm 23.5 22.5 12.2 49 6.4 S 9 13 5 7 - - 0.0
23/05:30pm 23.8 22.1 12.4 48 6.5 S 13 17 7 9 - - 0.0
23/05:00pm 23.7 21.8 11.7 47 6.8 SSW 13 19 7 10 - - 0.0
23/04:30pm 24.5 22.3 12.1 46 7.1 SSW 15 22 8 12 - - 0.0
23/04:00pm 24.2 22.1 12.5 48 6.7 SW 15 22 8 12 - - 0.0
23/03:30pm 23.6 21.2 12.6 50 6.3 SW 17 24 9 13 - - 0.0
23/03:00pm 24.0 22.1 12.9 50 6.4 SW 15 24 8 13 - - 0.0
23/02:30pm 24.9 22.9 12.8 47 7.0 WSW 15 24 8 13 - - 0.0
23/02:00pm 25.2 23.2 12.8 46 7.2 WSW 15 26 8 14 - - 0.0
23/01:30pm 25.0 23.0 12.6 46 7.1 SW 15 22 8 12 - - 0.0
23/01:00pm 24.8 23.4 12.1 45 7.3 WSW 11 24 6 13 - - 0.0
23/12:30pm 23.6 22.1 12.0 48 6.6 SSW 11 20 6 11 - - 0.0
23/12:00pm 22.5 20.6 11.9 51 6.0 SW 13 24 7 13 - - 0.0
23/11:30am 22.6 21.3 11.4 49 6.3 SSW 9 22 5 12 - - 0.0
23/11:00am 21.1 20.2 11.2 53 5.5 SSW 7 15 4 8 - - 0.0
23/10:30am 20.5 19.3 11.7 57 4.9 S 9 19 5 10 - - 0.0
23/10:00am 19.1 17.4 11.2 60 4.3 SSE 11 19 6 10 - - 0.0
23/09:30am 18.4 16.8 11.5 64 3.8 SE 11 20 6 11 - - 0.0
23/09:00am 17.4 15.3 11.2 67 3.4 SSE 13 22 7 12 - - 0.0
23/08:30am 16.6 14.5 11.3 71 2.9 SE 13 19 7 10 - - 0.0
23/08:00am 16.2 14.2 11.4 73 2.6 SE 13 19 7 10 - - 0.0
23/07:30am 15.9 14.2 11.3 74 2.5 SSE 11 17 6 9 - - 0.0
23/07:00am 15.5 13.9 11.5 77 2.2 SSE 11 17 6 9 - - 0.0
23/06:30am 15.5 14.9 11.7 78 2.1 SE 6 11 3 6 - - 0.0
23/06:00am 15.5 14.3 11.7 78 2.1 SSE 9 13 5 7 - - 0.0
23/05:30am 15.5 14.7 11.7 78 2.1 SSE 7 13 4 7 - - 0.0
23/05:00am 15.7 15.0 11.9 78 2.1 SSE 7 11 4 6 - - 0.0
23/04:30am 15.7 14.1 11.7 77 2.2 S 11 15 6 8 - - 0.0
23/04:00am 15.9 14.8 11.9 77 2.2 S 9 15 5 8 - - 0.0
23/03:30am 16.0 14.2 12.0 77 2.2 S 13 20 7 11 - - 0.0
23/03:00am 16.0 14.9 12.0 77 2.2 S 9 17 5 9 - - 0.0
23/02:30am 15.8 15.2 12.2 79 2.0 S 7 13 4 7 - - 0.0
23/02:00am 15.1 14.0 11.9 81 1.7 S 9 13 5 7 - - 0.0
23/01:30am 15.2 14.1 12.0 81 1.7 SSW 9 11 5 6 - - 0.0
23/01:00am 14.3 12.7 11.6 84 1.4 SSW 11 13 6 7 - - 0.0
23/12:30am 13.2 12.0 10.4 83 1.5 SSW 7 9 4 5 - - 0.0
23/12:00am 13.8 12.8 11.1 84 1.4 S 7 9 4 5 - - 0.0
 
Date/Time
CDT
Temp
°C
App
Temp
°C
Dew
Point
Rel
Hum
%
Delta-T
°C
Wind Press
QNH
hPa
Press
MSL
hPa
Rain
since 9 am
mm
Dir
 
Spd
km/h
Gust
km/h
Spd
kts
Gust
kts
22/11:30pm 14.1 13.1 11.1 82 1.6 SSE 7 9 4 5 - - 0.0
22/11:00pm 14.7 13.5 11.5 81 1.7 S 9 13 5 7 - - 0.0
22/10:30pm 16.0 14.6 12.2 78 2.1 SE 11 17 6 9 - - 0.0
22/10:00pm 16.6 15.3 12.4 76 2.3 SSE 11 17 6 9 - - 0.0
22/09:30pm 17.2 17.0 13.7 80 2.0 SSW 7 11 4 6 - - 0.0
22/09:00pm 17.4 17.4 13.7 79 2.1 S 6 11 3 6 - - 0.0
22/08:30pm 18.0 17.5 13.9 77 2.3 SSW 9 17 5 9 - - 0.0
22/08:00pm 18.2 17.3 13.7 75 2.6 SSW 11 17 6 9 - - 0.0
22/07:30pm 18.6 16.5 13.7 73 2.8 SSW 17 22 9 12 - - 0.0
22/07:00pm 19.4 17.0 13.8 70 3.2 SW 19 30 10 16 - - 0.0
22/06:30pm 20.2 17.7 13.6 66 3.8 SW 19 30 10 16 - - 0.0
22/06:00pm 20.8 18.2 13.7 64 4.1 SW 20 26 11 14 - - 0.0
22/05:30pm 21.8 19.5 14.2 62 4.4 SW 19 26 10 14 - - 0.0
22/05:00pm 22.5 20.6 14.1 59 4.9 SW 17 28 9 15 - - 0.0
22/04:30pm 22.5 19.9 13.3 56 5.3 SW 19 28 10 15 - - 0.0
22/04:00pm 22.6 18.9 13.9 58 5.1 SW 26 37 14 20 - - 0.0
22/03:30pm 22.0 18.6 13.6 59 4.9 SW 24 35 13 19 - - 0.0
22/03:00pm 22.6 19.2 13.7 57 5.2 SW 24 33 13 18 - - 0.0
22/02:30pm 23.2 20.9 14.2 57 5.3 SW 19 28 10 15 - - 0.0
22/02:00pm 23.2 20.8 13.9 56 5.4 SW 19 30 10 16 - - 0.0
22/01:30pm 23.4 20.9 13.6 54 5.7 SW 19 30 10 16 - - 0.0
22/01:00pm 23.0 21.3 13.5 55 5.5 SW 15 24 8 13 - - 0.0
22/12:30pm 23.0 21.4 13.8 56 5.4 WSW 15 28 8 15 - - 0.0
22/12:00pm 24.0 22.6 13.5 52 6.1 WSW 13 26 7 14 - - 0.0
22/11:30am 22.7 21.6 13.2 55 5.5 WSW 11 20 6 11 - - 0.0
22/11:00am 22.9 21.8 13.1 54 5.6 WSW 11 19 6 10 - - 0.0
22/10:30am 22.4 21.8 13.5 57 5.1 WSW 9 20 5 11 - - 0.0
22/10:00am 21.5 21.0 13.7 61 4.5 WSW 9 17 5 9 - - 0.0
22/09:30am 21.6 20.8 14.0 62 4.4 SW 11 17 6 9 - - 0.0
22/09:00am 20.7 20.6 13.9 65 3.9 WSW 7 15 4 8 - - 0.0
22/08:30am 20.3 20.3 13.7 66 3.8 W 6 13 3 7 - - 0.0
22/08:00am 19.4 19.8 13.8 70 3.2 NW 4 7 2 4 - - 0.0
22/07:30am 18.2 18.4 13.1 72 2.9 N 4 7 2 4 - - 0.0
22/07:00am 17.0 16.5 12.1 73 2.7 NW 6 7 3 4 - - 0.0
22/06:30am 16.8 16.9 11.5 71 2.9 N 2 6 1 3 - - 0.0
22/06:00am 17.1 16.8 11.4 69 3.1 N 4 6 2 3 - - 0.0
22/05:30am 19.1 19.4 13.3 69 3.3 SW 4 9 2 5 - - 0.0
22/05:00am 19.7 19.2 13.9 69 3.3 S 9 20 5 11 - - 0.0
22/04:30am 20.1 17.8 13.1 64 4.0 WSW 17 28 9 15 - - 0.0
22/04:00am 21.9 20.0 6.6 37 7.8 WNW 6 11 3 6 - - 0.0
22/03:30am 22.3 20.0 2.9 28 9.2 WSW 4 13 2 7 - - 0.0
22/03:00am 23.3 20.8 3.8 28 9.5 NNE 6 7 3 4 - - 0.0
22/02:30am 22.4 19.0 4.0 30 9.0 NNE 11 13 6 7 - - 0.0
22/02:00am 26.7 23.9 1.9 20 12.0 NE 6 6 3 3 - - 0.0
22/01:30am 26.8 23.3 1.3 19 12.2 ENE 9 11 5 6 - - 0.0
22/01:00am 27.3 23.7 0.9 18 12.6 ENE 9 11 5 6 - - 0.0
22/12:30am 26.0 22.5 1.3 20 11.7 E 9 13 5 7 - - 0.0
22/12:00am 24.2 20.7 1.2 22 10.8 ESE 9 11 5 6 - - 0.0
 
Date/Time
CDT
Temp
°C
App
Temp
°C
Dew
Point
Rel
Hum
%
Delta-T
°C
Wind Press
QNH
hPa
Press
MSL
hPa
Rain
since 9 am
mm
Dir
 
Spd
km/h
Gust
km/h
Spd
kts
Gust
kts
21/11:30pm 22.2 18.8 -0.5 22 10.1 ESE 7 11 4 6 - - 0.0
21/11:00pm 22.9 19.2 0.1 22 10.3 E 9 11 5 6 - - 0.0
21/10:30pm 24.8 21.7 0.3 20 11.3 ENE 6 13 3 7 - - 0.0
21/10:00pm 27.8 25.8 2.1 19 12.5 SSE 2 4 1 2 - - 0.0
21/09:30pm 28.3 26.2 1.7 18 12.9 WNW 2 4 1 2 - - 0.0
21/09:00pm 27.3 25.1 0.9 18 12.6 ESE 2 4 1 2 - - 0.0
21/08:30pm 27.6 24.4 -0.5 16 13.1 E 6 6 3 3 - - 0.0
21/08:00pm 29.0 25.8 -0.2 15 13.8 E 6 7 3 4 - - 0.0
21/07:30pm 31.2 28.8 -0.5 13 15.1 E 2 4 1 2 - - 0.0
21/07:00pm 32.9 30.3 -1.4 11 16.3 NW 2 4 1 2 - - 0.0
21/06:30pm 35.1 32.6 -1.1 10 17.6 W 2 6 1 3 - - 0.0
21/06:00pm 36.6 33.1 -1.4 9 18.5 WNW 7 13 4 7 - - 0.0
21/05:30pm 36.7 33.1 2.7 12 17.7 NNW 11 20 6 11 - - 0.0
21/05:00pm 36.8 32.2 -1.2 9 18.6 NNW 13 20 7 11 - - 0.0
21/04:30pm 36.9 31.7 0.3 10 18.4 N 17 28 9 15 - - 0.0
21/04:00pm 37.6 32.3 -0.6 9 19.0 N 17 32 9 17 - - 0.0
21/03:30pm 37.5 32.2 -0.7 9 19.0 N 17 26 9 14 - - 0.0
21/03:00pm 38.2 32.7 -1.8 8 19.6 N 17 28 9 15 - - 0.0
21/02:30pm 37.5 31.8 -0.7 9 19.0 N 19 30 10 16 - - 0.0
21/02:00pm 37.8 32.1 -0.5 9 19.1 N 19 30 10 16 - - 0.0
21/01:30pm 37.3 32.0 -0.9 9 18.9 N 17 30 9 16 - - 0.0
21/01:00pm 36.6 31.6 -1.4 9 18.5 N 15 26 8 14 - - 0.0
21/12:30pm 36.0 30.9 0.9 11 17.7 N 17 28 9 15 - - 0.0
21/12:00pm 36.3 30.5 -0.2 10 18.1 NNE 20 30 11 16 - - 0.0
21/11:30am 35.9 30.3 0.9 11 17.6 N 20 33 11 18 - - 0.0
21/11:00am 35.3 29.2 0.4 11 17.4 NNE 22 35 12 19 - - 0.0
21/10:30am 34.8 27.5 0.0 11 17.2 NE 28 35 15 19 - - 0.0
21/10:00am 33.9 26.7 0.5 12 16.5 NE 28 39 15 21 - - 0.0
21/09:30am 32.5 25.7 0.6 13 15.7 NE 26 33 14 18 - - 0.0
21/09:00am 32.3 25.4 0.4 13 15.6 NE 26 41 14 22 - - 0.0
21/08:30am 31.3 24.8 0.6 14 14.9 NE 24 35 13 19 - - 0.0
21/08:00am 29.9 23.4 0.5 15 14.1 NE 24 33 13 18 - - 0.0
21/07:30am 29.6 24.0 1.1 16 13.8 NE 20 30 11 16 - - 0.0
21/07:00am 27.2 23.4 1.6 19 12.3 ENE 11 19 6 10 - - 0.0
21/06:30am 27.7 23.2 2.0 19 12.5 NE 15 24 8 13 - - 0.0
21/06:00am 27.8 22.0 2.1 19 12.5 ENE 22 37 12 20 - - 0.0
21/05:30am 28.0 22.6 2.2 19 12.6 ENE 20 33 11 18 - - 0.0
21/05:00am 28.2 22.8 2.4 19 12.7 ENE 20 33 11 18 - - 0.0
21/04:30am 27.8 22.5 2.8 20 12.3 ENE 20 32 11 17 - - 0.0
21/04:00am 27.8 22.5 2.8 20 12.3 ENE 20 33 11 18 - - 0.0
21/03:30am 27.9 21.8 2.9 20 12.4 ENE 24 37 13 20 - - 0.0
21/03:00am 27.7 22.9 2.7 20 12.3 ENE 17 26 9 14 - - 0.0
21/02:30am 28.4 22.4 3.3 20 12.6 ENE 24 37 13 20 - - 0.0
21/02:00am 28.3 22.3 3.2 20 12.5 ENE 24 37 13 20 - - 0.0
21/01:30am 28.0 23.3 3.0 20 12.4 E 17 28 9 15 - - 0.0
21/01:00am 28.5 24.0 1.9 18 13.0 E 15 26 8 14 - - 0.0
21/12:30am 29.2 23.7 1.7 17 13.4 E 20 30 11 16 - - 0.0
21/12:00am 29.4 23.8 1.0 16 13.7 E 20 28 11 15 - - 0.0
 
Date/Time
CDT
Temp
°C
App
Temp
°C
Dew
Point
Rel
Hum
%
Delta-T
°C
Wind Press
QNH
hPa
Press
MSL
hPa
Rain
since 9 am
mm
Dir
 
Spd
km/h
Gust
km/h
Spd
kts
Gust
kts
20/11:30pm 30.3 24.6 0.8 15 14.3 E 20 39 11 21 - - 0.0
20/11:00pm 30.0 24.4 1.5 16 14.0 E 20 33 11 18 - - 0.0
20/10:30pm 29.3 24.4 1.7 17 13.5 E 17 24 9 13 - - 0.0
20/10:00pm 28.9 24.8 2.2 18 13.1 E 13 19 7 10 - - 0.0
20/09:30pm 27.6 23.9 2.6 20 12.3 ENE 11 19 6 10 - - 0.0
20/09:00pm 26.4 23.4 1.7 20 11.8 E 7 11 4 6 - - 0.0

Other Formats:

Comma delimited format used in spreadsheet applications
http://www.bom.gov.au/fwo/IDS60801/IDS60801.99001.axf

JavaScript Object Notation format (JSON) in row-major order
http://www.bom.gov.au/fwo/IDS60801/IDS60801.99001.json